Taylor Park, Colorado
Current Conditions -  °F | °C
As of 11:55 PM on Saturday 25 Oct 2014 (Local Time) from KGUC Reporting Station
Clear Clear  
Wind Chill: 34°   Ceiling: Unl
Heat Index: 34°   Visibility: 10mi
Dew Point: 23°   Wind: 3mph
Humidity: 65%   Direction: 120°ESE
Pressure: 30.29"   Gusts: NA
Location:  38.5539°N, 107.09°W
Report Text: KGUC 260555Z AUTO 12003KT 10SM CLR 01/M05 A3029 RMK AO1 10180 20010 52003
Loading
Personal Weather Stations






























Interactive Weather Map
Tropical Storm Tracking
New forecast layout! Learn more

10-Day Weather Forecast

Advertisements
Track Severe Weather on mobile